< < Back
Terminal Aerodrome Forecast


Current Version              Previous Versions:   1  2  3  4  5  6  7  8  9  

Terminal Aerodrome Forecast

600
FTUS42 KGSP 260535
TAFAND
TAF
KAND 260535Z 2606/2706 06007KT P6SM SCT060
     FM260900 06008KT P6SM BKN025
      TEMPO 2610/2613 BKN015
     FM261500 06008KT P6SM SCT050
     FM262100 10006KT P6SM SCT060 PROB30 2621/2701 -TSRA BKN060CB
     FM270300 VRB03KT P6SM FEW060=



Latest METAR

372
SAUS70 KWBC 261300 RRA
MTRAND
METAR KAND 261256Z AUTO 07011KT 10SM OVC014 25/21 A3021 RMK AO2 SLP221
T02500206


USA.gov is the U.S. government's official web portal to all federal, state and local government web resources and services.